createdAt,value
2023-01-26T00:01:34.021Z,17.05
2023-01-26T00:04:13.724Z,18.85
2023-01-26T00:06:46.891Z,16.77
2023-01-26T00:09:21.947Z,19.27
2023-01-26T00:11:53.068Z,20.63
2023-01-26T00:14:23.264Z,16.30
2023-01-26T00:16:59.372Z,18.38
2023-01-26T00:19:31.174Z,17.80
2023-01-26T00:22:02.730Z,18.77
2023-01-26T00:24:33.181Z,18.23
2023-01-26T00:27:03.219Z,15.68
2023-01-26T00:29:33.721Z,19.98
2023-01-26T00:32:04.306Z,18.58
2023-01-26T00:34:34.688Z,14.75
2023-01-26T00:37:05.088Z,14.05
2023-01-26T00:39:43.089Z,14.35
2023-01-26T00:42:17.664Z,15.88
2023-01-26T00:44:48.779Z,15.73
2023-01-26T00:47:21.505Z,17.50
2023-01-26T00:49:53.759Z,14.93
2023-01-26T00:52:24.021Z,17.30
2023-01-26T00:54:54.003Z,16.63
2023-01-26T00:57:24.339Z,16.75
2023-01-26T00:59:54.366Z,17.63
2023-01-26T01:02:27.445Z,17.05
2023-01-26T01:04:58.245Z,17.15
2023-01-26T01:07:29.088Z,16.45
2023-01-26T01:10:02.421Z,17.63
2023-01-26T01:12:32.802Z,13.35
2023-01-26T01:15:03.824Z,15.20
2023-01-26T01:17:35.630Z,11.93
2023-01-26T01:20:08.580Z,12.23
2023-01-26T01:22:39.563Z,13.27
2023-01-26T01:25:11.086Z,13.85
2023-01-26T01:27:41.666Z,16.83
2023-01-26T01:30:14.046Z,16.33
2023-01-26T01:33:23.985Z,16.33
2023-01-26T01:36:05.401Z,17.02
2023-01-26T01:41:43.781Z,14.88
2023-01-26T01:44:23.605Z,12.73
2023-01-26T01:46:59.022Z,12.43
2023-01-26T01:49:35.508Z,12.93
2023-01-26T01:52:22.955Z,18.83
2023-01-26T01:55:13.126Z,20.05
2023-01-26T01:57:56.469Z,25.90
2023-01-26T02:00:36.256Z,26.77
2023-01-26T02:03:22.919Z,26.35
2023-01-26T02:06:37.227Z,21.52
2023-01-26T02:09:37.581Z,15.10
2023-01-26T02:12:11.993Z,12.05
2023-01-26T02:14:43.826Z,12.35
2023-01-26T02:17:14.388Z,16.50
2023-01-26T02:20:13.544Z,18.95
2023-01-26T02:23:02.638Z,19.40
2023-01-26T02:25:51.466Z,26.27
2023-01-26T02:28:31.064Z,25.90
2023-01-26T02:33:35.362Z,22.50
2023-01-26T02:36:09.129Z,25.65
2023-01-26T02:39:07.391Z,27.83
2023-01-26T02:41:55.929Z,26.20
2023-01-26T02:44:27.977Z,28.10
2023-01-26T02:47:01.223Z,28.83
2023-01-26T02:49:55.822Z,26.52
2023-01-26T02:52:35.385Z,24.55
2023-01-26T02:55:27.379Z,23.13
2023-01-26T02:58:00.575Z,22.02
2023-01-26T03:00:39.086Z,21.23
2023-01-26T03:03:21.166Z,14.07
2023-01-26T03:05:54.263Z,13.18
2023-01-26T03:08:24.438Z,15.25
2023-01-26T03:10:54.616Z,21.70
2023-01-26T03:13:25.157Z,21.63
2023-01-26T03:15:55.903Z,15.93
2023-01-26T03:18:43.953Z,14.50
2023-01-26T03:21:36.090Z,13.35
2023-01-26T03:24:25.846Z,14.05
2023-01-26T03:27:15.461Z,14.65
2023-01-26T03:29:46.336Z,21.40
2023-01-26T03:32:17.283Z,25.27
2023-01-26T03:34:47.821Z,27.70
2023-01-26T03:37:23.340Z,26.42
2023-01-26T03:40:21.161Z,26.52
2023-01-26T03:43:11.553Z,24.90
2023-01-26T03:46:00.867Z,22.63
2023-01-26T03:48:52.160Z,22.45
2023-01-26T03:51:40.400Z,19.35
2023-01-26T03:54:29.124Z,20.90
2023-01-26T03:56:59.316Z,24.13
2023-01-26T03:59:41.870Z,24.67
2023-01-26T04:02:34.258Z,23.60
2023-01-26T04:05:23.878Z,19.63
2023-01-26T04:08:25.995Z,17.23
2023-01-26T04:11:04.621Z,15.85
2023-01-26T04:13:53.207Z,15.65
2023-01-26T04:16:50.172Z,18.52
2023-01-26T04:19:38.464Z,15.13
2023-01-26T04:22:09.863Z,12.00
2023-01-26T04:24:40.206Z,10.98
2023-01-26T04:27:10.390Z,13.45
2023-01-26T04:29:43.478Z,16.55
2023-01-26T04:32:13.842Z,12.70
2023-01-26T04:34:43.960Z,11.07
2023-01-26T04:37:22.145Z,9.30
2023-01-26T04:39:54.343Z,11.63
2023-01-26T04:42:25.856Z,14.73
2023-01-26T04:44:57.144Z,18.50
2023-01-26T04:47:29.321Z,20.15
2023-01-26T04:50:00.030Z,22.35
2023-01-26T04:52:30.252Z,20.08
2023-01-26T04:55:01.180Z,19.27
2023-01-26T04:57:33.951Z,19.45
2023-01-26T05:00:06.671Z,21.40
2023-01-26T05:02:36.989Z,21.30
2023-01-26T05:05:07.257Z,23.30
2023-01-26T05:07:37.368Z,24.23
2023-01-26T05:10:07.818Z,23.13
2023-01-26T05:12:56.167Z,23.02
2023-01-26T05:15:43.369Z,26.35
2023-01-26T05:18:26.869Z,27.33
2023-01-26T05:21:07.049Z,26.52
2023-01-26T05:23:42.322Z,24.13
2023-01-26T05:26:12.560Z,19.55
2023-01-26T05:28:52.859Z,17.63
2023-01-26T05:31:23.163Z,20.08
2023-01-26T05:33:53.418Z,23.35
2023-01-26T05:36:26.068Z,17.77
2023-01-26T05:38:56.496Z,16.23
2023-01-26T05:41:28.792Z,18.85
2023-01-26T05:44:17.264Z,19.95
2023-01-26T05:47:09.849Z,19.08
2023-01-26T05:49:44.053Z,17.00
2023-01-26T05:52:21.238Z,12.20
2023-01-26T05:54:52.709Z,11.40
2023-01-26T05:57:22.910Z,8.23
2023-01-26T05:59:57.500Z,11.13
2023-01-26T06:02:30.776Z,24.20
2023-01-26T06:05:00.926Z,23.67
2023-01-26T06:07:31.016Z,22.27
2023-01-26T06:10:13.060Z,20.52
2023-01-26T06:13:09.437Z,20.85
2023-01-26T06:15:54.419Z,17.70
2023-01-26T06:18:28.585Z,17.55
2023-01-26T06:21:03.120Z,16.75
2023-01-26T06:23:33.544Z,17.80
2023-01-26T06:26:05.250Z,16.27
2023-01-26T06:28:37.340Z,13.20
2023-01-26T06:31:09.334Z,12.23
2023-01-26T06:33:40.836Z,11.52
2023-01-26T06:36:14.243Z,15.40
2023-01-26T06:38:50.584Z,11.30
2023-01-26T06:41:21.268Z,11.70
2023-01-26T06:43:52.935Z,12.95
2023-01-26T06:46:23.414Z,8.80
2023-01-26T06:48:55.743Z,12.40
2023-01-26T06:51:46.871Z,12.32
2023-01-26T06:54:17.347Z,11.02
2023-01-26T06:57:16.423Z,10.18
2023-01-26T07:00:16.167Z,9.00
2023-01-26T07:03:04.432Z,10.77
2023-01-26T07:05:34.806Z,9.80
2023-01-26T07:08:07.617Z,9.95
2023-01-26T07:10:39.072Z,9.32
2023-01-26T07:13:09.559Z,9.57
2023-01-26T07:15:39.485Z,8.15
2023-01-26T07:18:10.026Z,7.57
2023-01-26T07:20:39.987Z,9.60
2023-01-26T07:23:10.117Z,8.38
2023-01-26T07:25:40.010Z,9.45
2023-01-26T07:28:11.983Z,9.70
2023-01-26T07:30:42.063Z,10.95
2023-01-26T07:33:12.133Z,10.80
2023-01-26T07:35:42.348Z,13.18
2023-01-26T07:38:12.374Z,11.95
2023-01-26T07:40:42.502Z,11.77
2023-01-26T07:43:12.413Z,9.57
2023-01-26T07:45:56.675Z,9.20
2023-01-26T07:48:26.926Z,8.77
2023-01-26T07:50:59.278Z,10.43
2023-01-26T07:53:31.353Z,9.48
2023-01-26T07:56:27.503Z,9.52
2023-01-26T07:58:58.210Z,10.18
2023-01-26T08:01:28.125Z,10.40
2023-01-26T08:03:58.656Z,10.95
2023-01-26T08:06:28.552Z,15.50
2023-01-26T08:08:59.254Z,15.48
2023-01-26T08:11:29.148Z,14.70
2023-01-26T08:13:59.264Z,12.10
2023-01-26T08:16:29.315Z,12.82
2023-01-26T08:18:59.435Z,12.10
2023-01-26T08:21:30.658Z,10.40
2023-01-26T08:24:03.088Z,9.57
2023-01-26T08:26:34.007Z,11.57
2023-01-26T08:29:04.401Z,9.95
2023-01-26T08:31:34.726Z,9.43
2023-01-26T08:34:05.583Z,9.10
2023-01-26T08:36:35.512Z,7.05
2023-01-26T08:39:06.223Z,6.65
2023-01-26T08:41:36.133Z,6.63
2023-01-26T08:44:06.251Z,8.38
2023-01-26T08:46:36.119Z,10.38
2023-01-26T08:49:07.380Z,8.82
2023-01-26T08:51:37.486Z,7.47
2023-01-26T08:54:09.798Z,5.57
2023-01-26T08:56:40.062Z,4.97
2023-01-26T08:59:10.045Z,5.28
2023-01-26T09:01:40.292Z,4.30
2023-01-26T09:04:10.198Z,4.35
2023-01-26T09:06:40.397Z,4.50
2023-01-26T09:09:14.369Z,4.35
2023-01-26T09:11:44.760Z,6.30
2023-01-26T09:14:14.648Z,12.38
2023-01-26T09:16:44.829Z,13.93
2023-01-26T09:19:14.748Z,13.70
2023-01-26T09:21:45.192Z,15.50
2023-01-26T09:24:15.100Z,21.73
2023-01-26T09:26:45.261Z,27.08
2023-01-26T09:29:15.282Z,28.95
2023-01-26T09:31:45.806Z,34.40
2023-01-26T09:34:16.247Z,37.60
2023-01-26T09:36:46.627Z,35.50
2023-01-26T09:39:16.498Z,30.00
2023-01-26T09:42:53.567Z,25.75
2023-01-26T09:45:33.561Z,22.02
2023-01-26T09:48:25.172Z,19.48
2023-01-26T09:51:24.651Z,19.33
2023-01-26T09:54:18.174Z,14.52
2023-01-26T09:56:48.716Z,25.55
2023-01-26T09:59:36.128Z,27.98
2023-01-26T10:02:30.047Z,21.00
2023-01-26T10:07:34.090Z,18.40
2023-01-26T10:10:05.801Z,20.88
2023-01-26T10:12:39.768Z,18.95
2023-01-26T10:15:30.839Z,16.33
2023-01-26T10:18:07.724Z,16.60
2023-01-26T10:20:52.355Z,20.65
2023-01-26T10:23:31.627Z,16.23
2023-01-26T10:26:22.759Z,14.57
2023-01-26T10:28:54.451Z,16.73
2023-01-26T10:31:28.973Z,17.63
2023-01-26T10:34:21.888Z,16.33
2023-01-26T10:36:52.455Z,14.27
2023-01-26T10:39:22.492Z,15.35
2023-01-26T10:42:02.716Z,15.90
2023-01-26T10:44:34.366Z,11.82
2023-01-26T10:47:24.755Z,11.40
2023-01-26T10:49:55.030Z,12.77
2023-01-26T10:52:26.792Z,11.15
2023-01-26T10:55:14.822Z,12.27
2023-01-26T10:57:45.075Z,11.25
2023-01-26T11:00:23.878Z,13.38
2023-01-26T11:02:57.082Z,12.00
2023-01-26T11:05:28.343Z,13.10
2023-01-26T11:08:04.307Z,11.93
2023-01-26T11:10:52.718Z,14.10
2023-01-26T11:13:23.856Z,13.43
2023-01-26T11:16:21.907Z,13.15
2023-01-26T11:19:21.586Z,12.45
2023-01-26T11:22:06.000Z,13.23
2023-01-26T11:24:53.714Z,12.73
2023-01-26T11:27:31.084Z,13.13
2023-01-26T11:30:21.941Z,15.27
2023-01-26T11:33:10.205Z,13.38
2023-01-26T11:35:52.153Z,14.88
2023-01-26T11:38:32.501Z,15.80
2023-01-26T11:41:12.543Z,14.63
2023-01-26T11:44:00.578Z,12.70
2023-01-26T11:46:56.320Z,13.57
2023-01-26T11:50:03.036Z,16.48
2023-01-26T11:52:53.231Z,14.02
2023-01-26T11:55:26.393Z,13.88
2023-01-26T11:58:06.589Z,14.00
2023-01-26T12:00:48.707Z,13.70
2023-01-26T12:03:32.933Z,13.50
2023-01-26T12:06:08.425Z,12.93
2023-01-26T12:08:45.480Z,12.43
2023-01-26T12:11:41.291Z,13.02
2023-01-26T12:14:46.279Z,13.85
2023-01-26T12:17:38.158Z,12.50
2023-01-26T12:20:49.423Z,12.45
2023-01-26T12:23:39.409Z,14.57
2023-01-26T12:26:16.575Z,13.25
2023-01-26T12:29:10.797Z,12.57
2023-01-26T12:31:52.778Z,15.05
2023-01-26T12:34:33.462Z,14.27
2023-01-26T12:39:58.004Z,13.93
2023-01-26T12:42:49.518Z,15.23
2023-01-26T12:45:26.979Z,12.65
2023-01-26T12:48:07.180Z,13.60
2023-01-26T12:50:53.362Z,14.75
2023-01-26T12:54:02.205Z,15.00
2023-01-26T12:56:44.856Z,14.10
2023-01-26T12:59:47.087Z,14.20
2023-01-26T13:02:30.908Z,16.90
2023-01-26T13:05:03.561Z,15.85
2023-01-26T13:07:40.356Z,17.10
2023-01-26T13:10:16.387Z,18.42
2023-01-26T13:13:27.706Z,19.27
2023-01-26T13:16:19.757Z,18.77
2023-01-26T13:18:57.077Z,17.73
2023-01-26T13:21:39.587Z,20.15
2023-01-26T13:24:19.214Z,18.63
2023-01-26T13:26:54.111Z,21.25
2023-01-26T13:29:28.530Z,18.77
2023-01-26T13:32:20.077Z,20.75
2023-01-26T13:34:56.222Z,18.45
2023-01-26T13:37:39.239Z,18.65
2023-01-26T13:40:22.518Z,16.52
2023-01-26T13:43:26.277Z,19.55
2023-01-26T13:46:22.435Z,16.98
2023-01-26T13:48:55.276Z,15.38
2023-01-26T13:51:30.013Z,16.50
2023-01-26T13:54:03.561Z,16.33
2023-01-26T13:56:37.902Z,16.70
2023-01-26T13:59:17.371Z,16.80
2023-01-26T14:01:51.073Z,19.45
2023-01-26T14:04:28.566Z,19.35
2023-01-26T14:07:04.269Z,19.55
2023-01-26T14:09:47.040Z,18.50
2023-01-26T14:12:43.914Z,17.70
2023-01-26T14:15:30.039Z,17.10
2023-01-26T14:18:03.416Z,14.90
2023-01-26T14:20:43.827Z,14.95
2023-01-26T14:23:20.184Z,18.65
2023-01-26T14:26:21.617Z,17.00
2023-01-26T14:28:51.701Z,15.60
2023-01-26T14:31:30.034Z,13.45
2023-01-26T14:34:01.369Z,15.55
2023-01-26T14:36:40.424Z,15.15
2023-01-26T14:39:28.370Z,13.63
2023-01-26T14:41:59.700Z,14.95
2023-01-26T14:44:32.312Z,16.00
2023-01-26T14:47:12.228Z,15.05
2023-01-26T14:49:52.372Z,15.00
2023-01-26T14:52:29.138Z,16.35
2023-01-26T14:55:29.503Z,13.18
2023-01-26T14:58:01.072Z,14.20
2023-01-26T15:00:40.056Z,13.32
2023-01-26T15:03:18.984Z,12.32
2023-01-26T15:05:50.602Z,13.80
2023-01-26T15:08:29.124Z,13.50
2023-01-26T15:11:23.605Z,13.43
2023-01-26T15:14:00.612Z,13.05
2023-01-26T15:16:39.214Z,14.15
2023-01-26T15:19:23.802Z,12.55
2023-01-26T15:22:00.955Z,12.18
2023-01-26T15:24:35.315Z,11.57
2023-01-26T15:27:14.880Z,11.77
2023-01-26T15:32:35.554Z,11.07
2023-01-26T15:35:19.680Z,10.60
2023-01-26T15:37:53.746Z,10.38
2023-01-26T15:40:23.809Z,10.98
2023-01-26T15:43:07.221Z,10.30
2023-01-26T15:45:37.966Z,10.40
2023-01-26T15:48:08.637Z,11.40
2023-01-26T15:50:44.848Z,9.27
2023-01-26T15:53:21.830Z,9.35
2023-01-26T15:55:57.244Z,8.18
2023-01-26T15:58:32.970Z,9.23
2023-01-26T16:01:07.899Z,10.00
2023-01-26T16:03:38.840Z,10.38
2023-01-26T16:06:18.482Z,9.57
2023-01-26T16:08:49.627Z,9.60
2023-01-26T16:11:21.833Z,8.63
2023-01-26T16:14:02.829Z,8.23
2023-01-26T16:16:35.061Z,9.15
2023-01-26T16:19:07.153Z,5.53
2023-01-26T16:21:41.282Z,7.80
2023-01-26T16:24:13.489Z,5.72
2023-01-26T16:26:43.795Z,6.03
2023-01-26T16:29:13.767Z,8.15
2023-01-26T16:31:45.459Z,5.63
2023-01-26T16:34:16.189Z,7.40
2023-01-26T16:36:46.931Z,6.53
2023-01-26T16:39:17.059Z,5.03
2023-01-26T16:41:56.885Z,6.28
2023-01-26T16:44:27.579Z,4.85
2023-01-26T16:46:58.218Z,5.07
2023-01-26T16:49:30.947Z,5.82
2023-01-26T16:52:05.869Z,6.90
2023-01-26T17:00:00.661Z,5.40
2023-01-26T17:02:39.686Z,4.45
2023-01-26T17:05:21.713Z,4.75
2023-01-26T17:07:52.454Z,7.22
2023-01-26T17:10:24.030Z,5.15
2023-01-26T17:12:55.881Z,5.50
2023-01-26T17:15:26.480Z,6.65
2023-01-26T17:17:56.712Z,6.50
2023-01-26T17:20:27.216Z,5.40
2023-01-26T17:23:06.869Z,5.53
2023-01-26T17:25:43.740Z,6.15
2023-01-26T17:28:14.166Z,6.22
2023-01-26T17:30:44.547Z,5.30
2023-01-26T17:33:15.136Z,5.55
2023-01-26T17:35:46.122Z,5.63
2023-01-26T17:38:16.928Z,5.45
2023-01-26T17:40:55.372Z,5.70
2023-01-26T17:43:26.897Z,5.82
2023-01-26T17:46:17.962Z,6.68
2023-01-26T17:48:52.343Z,5.20
2023-01-26T17:51:24.420Z,4.43
2023-01-26T17:53:55.585Z,5.20
2023-01-26T17:56:27.575Z,5.35
2023-01-26T17:58:58.332Z,6.25
2023-01-26T18:01:31.530Z,5.63
2023-01-26T18:04:03.900Z,6.10
2023-01-26T18:06:34.117Z,6.22
2023-01-26T18:09:05.519Z,4.40
2023-01-26T18:11:36.106Z,5.68
2023-01-26T18:14:06.752Z,7.57
2023-01-26T18:16:37.357Z,6.15
2023-01-26T18:19:07.489Z,5.93
2023-01-26T18:21:39.917Z,6.28
2023-01-26T18:24:10.590Z,4.90
2023-01-26T18:30:44.374Z,7.22
2023-01-26T18:33:15.019Z,7.35
2023-01-26T18:35:45.402Z,6.68
2023-01-26T18:38:15.772Z,6.35
2023-01-26T18:40:45.997Z,8.65
2023-01-26T18:43:16.305Z,5.55
2023-01-26T18:45:47.115Z,6.22
2023-01-26T18:48:18.798Z,6.85
2023-01-26T18:50:52.624Z,6.95
2023-01-26T18:53:23.425Z,6.38
2023-01-26T18:55:56.526Z,6.15
2023-01-26T18:58:26.836Z,7.55
2023-01-26T19:00:59.052Z,7.68
2023-01-26T19:03:32.170Z,5.75
2023-01-26T19:10:05.867Z,6.95
2023-01-26T19:12:35.825Z,6.55
2023-01-26T19:15:06.931Z,8.82
2023-01-26T19:17:39.820Z,7.13
2023-01-26T19:20:10.455Z,7.20
2023-01-26T19:22:40.465Z,6.47
2023-01-26T19:25:11.260Z,7.80
2023-01-26T19:27:43.368Z,6.63
2023-01-26T19:30:15.975Z,6.75
2023-01-26T19:33:06.978Z,5.88
2023-01-26T19:35:41.234Z,6.75
2023-01-26T19:38:11.333Z,9.27
2023-01-26T19:40:41.216Z,9.73
2023-01-26T19:43:11.485Z,8.25
2023-01-26T19:45:42.194Z,7.72
2023-01-26T19:48:12.492Z,5.68
2023-01-26T19:50:42.674Z,7.43
2023-01-26T19:53:16.198Z,9.55
2023-01-26T19:55:46.465Z,12.25
2023-01-26T19:58:16.661Z,10.98
2023-01-26T20:00:46.789Z,9.77
2023-01-26T20:03:16.935Z,11.10
2023-01-26T20:05:47.214Z,10.55
2023-01-26T20:08:17.143Z,8.63
2023-01-26T20:10:47.200Z,8.93
2023-01-26T20:13:17.199Z,9.18
2023-01-26T20:19:51.526Z,8.02
2023-01-26T20:22:22.087Z,12.18
2023-01-26T20:24:52.285Z,9.55
2023-01-26T20:27:22.134Z,7.85
2023-01-26T20:29:52.417Z,4.03
2023-01-26T20:32:22.591Z,3.42
2023-01-26T20:34:53.599Z,4.70
2023-01-26T20:37:25.720Z,7.97
2023-01-26T20:39:55.897Z,5.68
2023-01-26T20:42:25.844Z,4.05
2023-01-26T20:44:58.606Z,4.28
2023-01-26T20:51:32.437Z,4.10
2023-01-26T20:54:03.087Z,4.72
2023-01-26T20:56:33.435Z,4.03
2023-01-26T20:59:03.413Z,4.65
2023-01-26T21:22:01.719Z,8.30
2023-01-26T21:24:32.360Z,8.35
2023-01-26T21:27:03.859Z,9.75
2023-01-26T21:29:33.894Z,12.70
2023-01-26T21:32:06.208Z,13.90
2023-01-26T21:34:36.655Z,15.93
2023-01-26T21:37:07.579Z,16.88
2023-01-26T21:39:37.947Z,16.13
2023-01-26T21:42:08.378Z,12.50
2023-01-26T21:44:58.680Z,12.43
2023-01-26T21:47:28.899Z,9.93
2023-01-26T21:50:00.562Z,8.50
2023-01-26T21:52:48.326Z,5.07
2023-01-26T21:55:18.483Z,4.95
2023-01-26T22:00:53.221Z,5.50
2023-01-26T22:03:23.187Z,6.45
2023-01-26T22:05:54.746Z,11.07
2023-01-26T22:08:25.421Z,12.57
2023-01-26T22:10:56.672Z,13.00
2023-01-26T22:13:28.040Z,14.57
2023-01-26T22:16:04.403Z,16.40
2023-01-26T22:18:35.749Z,13.52
2023-01-26T22:21:05.948Z,13.13
2023-01-26T22:23:38.615Z,14.65
2023-01-26T22:26:11.587Z,13.65
2023-01-26T22:28:42.182Z,13.50
2023-01-26T22:31:15.998Z,11.65
2023-01-26T22:33:46.633Z,11.07
2023-01-26T22:36:21.020Z,10.15
2023-01-26T22:38:54.619Z,12.90
2023-01-26T22:41:30.263Z,11.63
2023-01-26T22:44:05.717Z,10.10
2023-01-26T22:46:38.366Z,12.32
2023-01-26T22:49:08.686Z,11.18
2023-01-26T22:51:40.885Z,12.27
2023-01-26T22:54:13.601Z,12.75
2023-01-26T22:56:43.844Z,14.40
2023-01-26T22:59:13.749Z,57.13
2023-01-26T23:01:44.210Z,47.70
2023-01-26T23:04:16.505Z,18.80
2023-01-26T23:06:47.177Z,13.35
2023-01-26T23:09:18.306Z,15.10
2023-01-26T23:12:04.519Z,6.20
2023-01-26T23:14:35.795Z,7.40
2023-01-26T23:17:06.750Z,4.43
2023-01-26T23:19:37.014Z,12.80
2023-01-26T23:22:07.271Z,4.15
2023-01-26T23:24:37.218Z,2.88
2023-01-26T23:27:08.964Z,3.78
2023-01-26T23:29:39.257Z,3.22
2023-01-26T23:32:09.443Z,2.70
2023-01-26T23:34:39.587Z,12.27
2023-01-26T23:37:10.048Z,10.23
2023-01-26T23:39:40.453Z,8.35
2023-01-26T23:42:10.539Z,5.40
2023-01-26T23:44:43.755Z,4.00
2023-01-26T23:47:17.638Z,3.60
2023-01-26T23:49:58.476Z,15.60
2023-01-26T23:53:24.951Z,17.02
2023-01-26T23:56:19.041Z,21.98
2023-01-26T23:58:50.367Z,26.17
